createdAt,value
2022-12-01T00:03:37.738Z,40.28
2022-12-01T00:09:52.771Z,40.41
2022-12-01T00:16:17.199Z,40.57
2022-12-01T00:22:41.649Z,40.67
2022-12-01T00:29:05.920Z,40.79
2022-12-01T00:35:30.295Z,41.02
2022-12-01T00:41:54.730Z,41.07
2022-12-01T00:48:19.009Z,41.15
2022-12-01T00:54:43.342Z,41.30
2022-12-01T01:01:03.242Z,41.44
2022-12-01T01:07:21.553Z,41.51
2022-12-01T01:13:46.123Z,41.55
2022-12-01T01:20:10.425Z,41.63
2022-12-01T01:26:34.860Z,41.68
2022-12-01T01:32:59.236Z,41.77
2022-12-01T01:39:23.604Z,41.80
2022-12-01T01:45:53.656Z,41.95
2022-12-01T01:52:18.038Z,41.95
2022-12-01T01:58:45.122Z,41.98
2022-12-01T02:05:09.531Z,41.99
2022-12-01T02:11:39.875Z,42.04
2022-12-01T02:18:10.236Z,42.09
2022-12-01T02:24:38.996Z,42.11
2022-12-01T02:31:06.346Z,42.19
2022-12-01T02:37:31.224Z,42.26
2022-12-01T02:44:10.792Z,42.31
2022-12-01T02:50:35.104Z,42.33
2022-12-01T02:56:59.481Z,42.41
2022-12-01T03:03:29.544Z,42.47
2022-12-01T03:09:56.676Z,42.50
2022-12-01T03:16:45.088Z,42.48
2022-12-01T03:23:18.233Z,42.49
2022-12-01T03:29:42.532Z,42.51
2022-12-01T03:36:09.757Z,42.56
2022-12-01T03:42:34.050Z,42.55
2022-12-01T03:48:58.475Z,42.55
2022-12-01T03:55:38.146Z,42.57
2022-12-01T04:02:05.490Z,42.57
2022-12-01T04:08:29.946Z,42.56
2022-12-01T04:14:54.342Z,42.60
2022-12-01T04:21:18.653Z,42.61
2022-12-01T04:27:43.060Z,42.64
2022-12-01T04:34:07.569Z,42.64
2022-12-01T04:40:21.837Z,42.67
2022-12-01T04:46:46.345Z,42.72
2022-12-01T04:53:10.664Z,42.73
2022-12-01T04:59:35.123Z,42.74
2022-12-01T05:05:58.444Z,42.79
2022-12-01T05:12:22.818Z,42.81
2022-12-01T05:18:47.139Z,42.83
2022-12-01T05:25:11.522Z,42.87
2022-12-01T05:31:35.860Z,42.85
2022-12-01T05:38:06.079Z,42.92
2022-12-01T05:44:30.966Z,43.08
2022-12-01T05:50:55.393Z,43.25
2022-12-01T05:57:19.863Z,43.26
2022-12-01T06:03:44.327Z,43.18
2022-12-01T06:10:08.827Z,43.00
2022-12-01T06:16:42.047Z,42.73
2022-12-01T06:23:06.465Z,42.49
2022-12-01T06:29:30.906Z,42.18
2022-12-01T06:35:55.424Z,41.91
2022-12-01T06:42:19.747Z,41.67
2022-12-01T06:48:44.138Z,41.44
2022-12-01T06:55:08.551Z,41.21
2022-12-01T07:01:33.076Z,40.99
2022-12-01T07:07:59.722Z,40.80
2022-12-01T07:14:24.343Z,40.63
2022-12-01T07:20:48.847Z,40.50
2022-12-01T07:27:13.206Z,40.31
2022-12-01T07:33:37.594Z,40.23
2022-12-01T07:40:01.987Z,40.09
2022-12-01T07:46:26.373Z,40.01
2022-12-01T07:52:50.832Z,40.08
2022-12-01T07:59:15.251Z,40.21
2022-12-01T08:05:39.655Z,40.55
2022-12-01T08:12:04.004Z,40.83
2022-12-01T08:18:28.377Z,40.98
2022-12-01T08:24:55.476Z,40.99
2022-12-01T08:31:19.980Z,40.95
2022-12-01T08:37:44.481Z,40.84
2022-12-01T08:44:08.881Z,40.67
2022-12-01T08:50:33.252Z,40.50
2022-12-01T08:56:51.263Z,40.32
2022-12-01T09:03:15.584Z,40.27
2022-12-01T09:09:39.881Z,40.19
2022-12-01T09:16:04.343Z,40.10
2022-12-01T09:22:28.682Z,40.00
2022-12-01T09:28:53.030Z,39.90
2022-12-01T09:35:20.819Z,39.79
2022-12-01T09:41:53.211Z,39.64
2022-12-01T09:48:26.812Z,39.46
2022-12-01T09:54:51.108Z,39.26
2022-12-01T10:01:14.551Z,39.09
2022-12-01T10:07:42.182Z,38.93
2022-12-01T10:14:09.732Z,38.79
2022-12-01T10:20:45.955Z,38.62
2022-12-01T10:27:12.998Z,38.47
2022-12-01T10:33:37.424Z,38.35
2022-12-01T10:40:01.819Z,38.22
2022-12-01T10:46:26.231Z,38.12
2022-12-01T10:52:51.986Z,38.03
2022-12-01T10:59:25.321Z,37.91
2022-12-01T11:06:01.530Z,37.82
2022-12-01T11:12:25.918Z,37.74
2022-12-01T11:19:05.757Z,37.63
2022-12-01T11:25:36.086Z,37.55
2022-12-01T11:32:00.419Z,37.47
2022-12-01T11:38:29.926Z,37.38
2022-12-01T11:44:57.222Z,37.30
2022-12-01T11:51:24.541Z,37.26
2022-12-01T11:57:48.943Z,37.19
2022-12-01T12:04:13.346Z,37.13
2022-12-01T12:10:46.567Z,37.05
2022-12-01T12:17:25.825Z,36.97
2022-12-01T12:24:02.707Z,36.94
2022-12-01T12:30:45.328Z,36.87
2022-12-01T12:37:21.324Z,36.81
2022-12-01T12:43:48.569Z,36.70
2022-12-01T12:50:25.167Z,36.89
2022-12-01T12:56:49.782Z,37.25
2022-12-01T13:03:30.607Z,37.59
2022-12-01T13:10:00.686Z,37.89
2022-12-01T13:16:25.562Z,38.02
2022-12-01T13:22:49.942Z,38.24
2022-12-01T13:29:23.000Z,38.38
2022-12-01T13:36:38.236Z,38.43
2022-12-01T13:42:39.732Z,38.46
2022-12-01T13:49:12.837Z,38.46
2022-12-01T13:56:00.875Z,38.41
2022-12-01T14:02:25.223Z,38.34
2022-12-01T14:09:04.705Z,38.22
2022-12-01T14:15:29.101Z,38.10
2022-12-01T14:21:53.531Z,37.98
2022-12-01T14:28:17.820Z,37.85
2022-12-01T14:35:00.405Z,37.72
2022-12-01T14:41:24.801Z,37.65
2022-12-01T14:47:49.655Z,37.59
2022-12-01T14:54:16.875Z,37.57
2022-12-01T15:00:47.120Z,37.58
2022-12-01T15:07:11.870Z,37.59
2022-12-01T15:13:36.247Z,37.57
2022-12-01T15:20:03.141Z,37.53
2022-12-01T15:26:27.546Z,37.52
2022-12-01T15:32:51.880Z,37.52
2022-12-01T15:39:15.006Z,37.50
2022-12-01T15:45:39.518Z,37.48
2022-12-01T15:52:06.630Z,37.43
2022-12-01T15:58:31.151Z,37.36
2022-12-01T16:05:27.443Z,37.36
2022-12-01T16:12:10.372Z,37.31
2022-12-01T16:18:46.590Z,37.33
2022-12-01T16:25:13.947Z,37.32
2022-12-01T16:31:58.625Z,37.33
2022-12-01T16:38:22.750Z,37.35
2022-12-01T16:44:47.151Z,37.34
2022-12-01T16:51:14.650Z,37.32
2022-12-01T16:57:39.232Z,37.31
2022-12-01T17:04:07.401Z,37.27
2022-12-01T17:10:32.271Z,37.26
2022-12-01T17:16:57.478Z,37.16
2022-12-01T17:23:21.801Z,37.14
2022-12-01T17:29:45.675Z,37.20
2022-12-01T17:36:10.567Z,37.44
2022-12-01T17:42:34.939Z,37.64
2022-12-01T17:48:59.389Z,37.75
2022-12-01T17:55:23.676Z,37.72
2022-12-01T18:01:48.328Z,37.65
2022-12-01T18:08:12.841Z,37.61
2022-12-01T18:14:40.163Z,37.55
2022-12-01T18:21:04.468Z,37.52
2022-12-01T18:27:28.808Z,37.51
2022-12-01T18:33:53.223Z,37.47
2022-12-01T18:40:17.529Z,37.44
2022-12-01T18:46:42.100Z,37.39
2022-12-01T18:53:06.444Z,37.36
2022-12-01T18:59:37.400Z,37.36
2022-12-01T19:06:01.738Z,37.35
2022-12-01T19:12:26.128Z,37.31
2022-12-01T19:18:50.468Z,37.25
2022-12-01T19:25:14.860Z,37.20
2022-12-01T19:31:39.356Z,37.25
2022-12-01T19:38:03.793Z,37.23
2022-12-01T19:44:28.257Z,37.27
2022-12-01T19:50:52.757Z,37.27
2022-12-01T19:57:17.021Z,37.24
2022-12-01T20:03:41.522Z,37.22
2022-12-01T20:10:06.100Z,37.15
2022-12-01T20:16:20.510Z,37.15
2022-12-01T20:22:44.836Z,37.11
2022-12-01T20:29:09.161Z,37.08
2022-12-01T20:35:33.825Z,37.04
2022-12-01T20:41:58.230Z,37.03
2022-12-01T20:48:22.621Z,37.01
2022-12-01T20:54:47.053Z,36.98
2022-12-01T21:01:10.329Z,37.03
2022-12-01T21:07:37.277Z,37.02
2022-12-01T21:14:04.442Z,36.98
2022-12-01T21:20:34.430Z,36.92
2022-12-01T21:26:58.693Z,36.85
2022-12-01T21:33:31.928Z,36.83
2022-12-01T21:39:58.954Z,36.84
2022-12-01T21:46:19.912Z,36.88
2022-12-01T21:52:44.285Z,37.04
2022-12-01T21:59:14.615Z,37.14
2022-12-01T22:05:32.784Z,37.21
2022-12-01T22:11:59.674Z,37.22
2022-12-01T22:18:24.071Z,37.26
2022-12-01T22:24:48.546Z,37.27
2022-12-01T22:31:16.223Z,37.30
2022-12-01T22:37:40.569Z,37.34
2022-12-01T22:44:19.868Z,37.41
2022-12-01T22:50:48.692Z,37.49
2022-12-01T22:57:27.745Z,37.58
2022-12-01T23:03:52.112Z,37.71
2022-12-01T23:10:16.410Z,37.83
2022-12-01T23:16:40.745Z,37.97
2022-12-01T23:23:05.040Z,38.07
2022-12-01T23:29:28.769Z,38.12
2022-12-01T23:35:53.034Z,38.15
2022-12-01T23:42:23.218Z,38.25
2022-12-01T23:48:47.519Z,38.37
2022-12-01T23:55:11.934Z,38.52
